Encinitas, CA

6:39 PM PDT on May 28, 2015 (GMT -0700)
Composer District | | Change Station
CLOSE
Current Station
Personal Weather Station
Location: Encinitas, CA
Elevation: 95 ft
Nearby Weather Stations

Elev 95 ft 33.03 °N, 117.29 °W | Updated 22 seconds ago

Clear
Clear
63.3 °F
Feels Like 63.3 °F
N
4.9
Wind Variable Wind from WSW
Gusts 7.4 mph

Today
High -- | Low -- °F
--% Chance of Precip.
Yesterday
High -- | Low -- °F
Precip. -- in
5:42 AM 7:50 PM
Waxing Gibbous, 80% visible
Pressure 29.93 in
Visibility 10.0 miles
Clouds Mostly Cloudy 1200 ft
Dew Point 58 °F
Humidity 83%
Rainfall 0.00 in
Snow Depth Not available.
UV 1.0 out of 12
Pollen 5.10 out of 12
Air Quality Not available.
Flu Activity Sporadic
SPECI KCRQ 290129Z AUTO 26006KT 10SM BKN012 17/13 A2993 RMK AO2 T01720133

More Conditions Fewer Conditions

Pressure 29.93 in
Visibility 10.0 miles
Clouds Mostly Cloudy 1200 ft
Dew Point 58 °F
Humidity 83%
Rainfall 0.00 in
Snow Depth Not available.
UV 1.0 out of 12
Pollen 5.10 out of 12
Air Quality Not available.
Flu Activity Sporadic
SPECI KCRQ 290129Z AUTO 26006KT 10SM BKN012 17/13 A2993 RMK AO2 T01720133

More Conditions Fewer Conditions

10-Day Weather Forecast

Almanac

Astronomy

May. 28, 2015 Rise Set
Actual Time
Civil Twilight
Nautical Twilight
Astronomical Twilight
Moon
Length of Visible Light
Length of Day
Tomorrow will be .
, % of the Moon is Illuminated

Today's Extremes

State Highs State Lows

Community

WunderPhotos

Upload Photos

1,825,111 photos uploaded!

WunderBlogs® & News

Nearby

Air Quality

  Air Quality AQ Index Pollutant
Not available.

Snow Depth

Station Depth Elevation

Earthquake Activity

City Distance Mag. Time & Date
Minimum magnitude displayed is 2.5.

Coastal Water Temperatures

Place Temperature

Stations

Nearby Weather Stations

Station Location Temp. Windchill Dew Point Humidity Wind Precip. Elev Updated Type